메인 페이지
METAR-TAF:

METAR-TAF

공항 :

던디, 스코틀랜드

위도: 56-27N, 경도: 003-01W, 고도: 4m

현재 날씨관측

예보는 7 시간 22분 전, 19:50시(UTC)에 발표되었습니다.
5kt
온도 13°C
습도 77%
기압 1018 hPa
시정 10km 이상
고도 3500ft 상공 구름 조금

METAR: EGPN 121950Z 09005KT 9999 FEW035 13/09 Q1018

시각: 04:12 (03:12 UTC)

예보

예보는 10 시간 13분 전, 16:59시(UTC)에 발표되었습니다.
예보 대상 시간: 12일 18시부터 12일 21시까지 (UTC)
8kt
시정 10km 이상
고도 3500ft 상공 구름 조금

TAF: EGPN 121659Z 1218/1221 10008KT 9999 FEW035

4,000개 이상의 공항 관측 자료 및 예보 (METAR 및 TAF 보고).

지도상에서 검색 가능한 기상관측소가 노란 점과 빨간 점으로 표시되어 있습니다.

기상관측소 명을 보려면 표시 위로 마우스를 이동하세요.

날씨 관측과 예보를 보려면 클릭하세요.

지도 변경 : 확대하려면 엑스 표시가 있는 녹색 버튼, 축소하려면 빼기 표시가 있는 녹색 버튼, 다음 페이지의 지도를 보려면 녹색 화살표를 클릭하세요.


METAR-TAF: